VOHS

Rajiv Gandhi International Airport

Hyderabad, India
TAF VOHS 161700Z 1618/1724 27012KT 5000 HZ SCT015 BKN1080 TEMPO 1618/1703 26010KT 4000 BR DZ SCT010 FEW030TCU OVC080 BECMG 1704/1706 27012KT 5000 -DZ SCT010 SCT015 BKN080 TEMPO 1711/1717 26012KT 4000 RA SCT025 FEW030CB OVC080 TEMPO 1718/1722 26108KT 5000 HZ RA SCT015 FEW030TCU BKN090 TEMPO 1722/1724 26008KT 5000 HZ -RA FEW025 BKN090
Issued Valid From Valid To
Jul-16 @ 17:00 UTC
(3 hours ago)
Jul-16 @ 18:00 UTC
(2 hours ago)
Jul-18 @ 00:00 UTC
(-1 days ago)
Jul-16 @ 18:00 to Jul-17 @ 04:00
TAF VOHS 161700Z 1618/1724 27012KT 5000 HZ SCT015 BKN1080
Wind Visibility Clouds Conditions
270° at 12 knots 5,005 meters
  • Scattered at 1,500' AGL
  • Haze
Temporary Jul-16 @ 18:00 to Jul-17 @ 03:00
TEMPO 1618/1703 26010KT 4000 BR DZ SCT010 FEW030TCU OVC080
Wind Visibility Clouds Conditions
260° at 10 knots 4,007 meters
  • Scattered at 1,000' AGL
  • Few at 3,000' AGL
  • Overcast at 8,000' AGL
  • Mist
  • Drizzle
Becoming Jul-17 @ 04:00 to Jul-18 @ 00:00
BECMG 1704/1706 27012KT 5000 -DZ SCT010 SCT015 BKN080
Wind Visibility Clouds Conditions
270° at 12 knots 5,005 meters
  • Scattered at 1,000' AGL
  • Scattered at 1,500' AGL
  • Broken at 8,000' AGL
  • Light Drizzle
Temporary Jul-17 @ 11:00 to Jul-17 @ 17:00
TEMPO 1711/1717 26012KT 4000 RA SCT025 FEW030CB OVC080
Wind Visibility Clouds Conditions
260° at 12 knots 4,007 meters
  • Scattered at 2,500' AGL
  • Few at 3,000' AGL
  • Overcast at 8,000' AGL
  • Rain
Temporary Jul-17 @ 18:00 to Jul-17 @ 22:00
TEMPO 1718/1722 26108KT 5000 HZ RA SCT015 FEW030TCU BKN090
Wind Visibility Clouds Conditions
261° at 8 knots 5,005 meters
  • Scattered at 1,500' AGL
  • Few at 3,000' AGL
  • Broken at 9,000' AGL
  • Haze
  • Rain
Temporary Jul-17 @ 22:00 to Jul-18 @ 00:00
TEMPO 1722/1724 26008KT 5000 HZ -RA FEW025 BKN090
Wind Visibility Clouds Conditions
260° at 8 knots 5,005 meters
  • Few at 2,500' AGL
  • Broken at 9,000' AGL
  • Haze
  • Light Rain
TAF VOHS 161700Z 1618/1724 27012KT 5000 HZ SCT015 BKN1080 TEMPO 1618/1703 26010KT 4000 BR DZ SCT010 FEW030TCU OVC080 BECMG 1704/1706 27012KT 5000 -DZ SCT010 SCT015 BKN080 TEMPO 1711/1717 26012KT 4000 RA SCT025 FEW030CB OVC080 TEMPO 1718/1722 26108KT 5000 HZ RA SCT015 FEW030TCU BKN090 TEMPO 1722/1724 26008KT 5000 HZ -RA FEW025 BKN090
Issued Jul-16 @ 17:00 UTC
(3 hours ago)
Valid From Jul-16 @ 18:00 UTC
(2 hours ago)
Valid To Jul-18 @ 00:00 UTC
(-1 days ago)
Jul-16 @ 18:00 - Jul-17 @ 04:00
Wind Visibility
270° at 12 knots 5,005 meters
Clouds
  • Scattered at 1,500' AGL
Conditions
  • Haze
Temporary Jul-16 @ 18:00 - Jul-17 @ 03:00
Wind Visibility
260° at 10 knots 4,007 meters
Clouds
  • Scattered at 1,000' AGL
  • Few at 3,000' AGL
  • Overcast at 8,000' AGL
Conditions
  • Mist
  • Drizzle
Becoming Jul-17 @ 04:00 - Jul-18 @ 00:00
Wind Visibility
270° at 12 knots 5,005 meters
Clouds
  • Scattered at 1,000' AGL
  • Scattered at 1,500' AGL
  • Broken at 8,000' AGL
Conditions
  • Light Drizzle
Temporary Jul-17 @ 11:00 - Jul-17 @ 17:00
Wind Visibility
260° at 12 knots 4,007 meters
Clouds
  • Scattered at 2,500' AGL
  • Few at 3,000' AGL
  • Overcast at 8,000' AGL
Conditions
  • Rain
Temporary Jul-17 @ 18:00 - Jul-17 @ 22:00
Wind Visibility
261° at 8 knots 5,005 meters
Clouds
  • Scattered at 1,500' AGL
  • Few at 3,000' AGL
  • Broken at 9,000' AGL
Conditions
  • Haze
  • Rain
Temporary Jul-17 @ 22:00 - Jul-18 @ 00:00
Wind Visibility
260° at 8 knots 5,005 meters
Clouds
  • Few at 2,500' AGL
  • Broken at 9,000' AGL
Conditions
  • Haze
  • Light Rain